11. August 2022

Uhrzeit Code Wetter Temp. Sichtweite Wolkendecke Wind METAR/SPECI
01:00
V
26 °C 10 km+ 4.900 ft 020° 020° 4 kt METAR LFBC 102300Z AUTO 02004KT 9999 BKN049 BKN068 26/08 Q1013
00:30
V
26 °C 10 km+ - 020° 020° 6 kt METAR LFBC 102230Z AUTO 02006KT CAVOK 26/08 Q1013
00:00
V
25 °C 10 km+ - 010° 010° 3 kt METAR LFBC 102200Z AUTO 01003KT CAVOK 25/09 Q1013

10. August 2022

Uhrzeit Code Wetter Temp. Sichtweite Wolkendecke Wind METAR/SPECI
23:30
V
24 °C 10 km+ - 030° 030° 2 kt METAR LFBC 102130Z AUTO 03002KT CAVOK 24/09 Q1013
23:00
V
27 °C 10 km+ - 010° 010° 3 kt METAR LFBC 102100Z AUTO 01003KT CAVOK 27/10 Q1013
22:30
V
27 °C 10 km+ - 360° 360° 4 kt METAR LFBC 102030Z AUTO 36004KT CAVOK 27/10 Q1013
22:00
V
29 °C 10 km+ - 020° 020° 5 kt METAR LFBC 102000Z AUTO 02005KT CAVOK 29/09 Q1013
21:30
V
30 °C 10 km+ - 360° 360° 4 kt METAR LFBC 101930Z AUTO 36004KT CAVOK 30/08 Q1012
21:00
M
32 °C 6 km - 360° 360° 5 kt METAR LFBC 101900Z AUTO 36005KT 6000 NSC 32/08 Q1012
20:30
L
33 °C 1,4 km - 350° 350° 5 kt METAR LFBC 101830Z AUTO 35005KT 1500 1400 R24/P2000 HZ NSC 33/08 Q1012
20:00
I
34 °C 1,8 km - 330° 330° 5 kt METAR LFBC 101800Z AUTO 33005KT 1800 HZ NSC 34/07 Q1012
19:30
I
35 °C 4,6 km 24.000 ft 310° 310° 6 kt METAR LFBC 101730Z AUTO 31006KT 4600 HZ FEW010 SCT015 BKN240 35/07 Q1012
19:00
I
35 °C 2 km 3.100 ft 300° 300° 6 kt METAR LFBC 101700Z AUTO 30006KT 4200 2000 HZ FEW016 SCT023 BKN031 35/07 Q1013
18:30
M
36 °C 6 km 3.800 ft 280° 280° 8 kt METAR LFBC 101630Z AUTO 28008KT 6000 FEW019 SCT024 BKN038 36/07 Q1013
18:00
M
37 °C 6 km 3.500 ft 280° 280° 7 kt METAR LFBC 101600Z AUTO 28007KT 190V310 6000 SCT025 BKN035 BKN043 37/07 Q1013
17:30
V
38 °C 10 km+ - 250° 250° 4 kt METAR LFBC 101530Z AUTO 25004KT 200V310 CAVOK 38/08 Q1013
17:00
V
38 °C 10 km+ - 220° 220° 6 kt METAR LFBC 101500Z AUTO 22006KT 180V260 CAVOK 38/08 Q1013 TEMPO 32010KT
16:30
V
37 °C 8 km - 190° 190° 6 kt METAR LFBC 101430Z AUTO 19006KT 130V230 8000 NSC 37/08 Q1013 TEMPO 32010KT
16:00
V
37 °C 9 km - 220° 220° 8 kt METAR LFBC 101400Z AUTO 22008KT 190V270 9000 NSC 37/08 Q1013 NOSIG
15:30
V
37 °C 9 km - 230° 230° 10 kt METAR LFBC 101330Z AUTO 23010KT 9000 NSC 37/09 Q1014 TEMPO 32010KT
15:00
V
37 °C 10 km+ - 140° 140° 4 kt METAR LFBC 101300Z AUTO 14004KT 080V200 9999 FEW032 37/06 Q1014 TEMPO 32010KT
14:30
V
37 °C 9 km - Var Var 5 kt METAR LFBC 101230Z AUTO VRB05KT 9000 NSC 37/07 Q1014 NOSIG
14:00
V
36 °C 10 km+ - 220° 220° 8 kt METAR LFBC 101200Z AUTO 22008KT 190V250 CAVOK 36/10 Q1015 NOSIG
13:30
V
35 °C 10 km+ - 210° 210° 5 kt METAR LFBC 101130Z AUTO 21005KT 190V250 CAVOK 35/11 Q1015 NOSIG
13:00
V
32 °C 10 km+ - 210° 210° 8 kt METAR LFBC 101100Z AUTO 21008KT 190V260 CAVOK 32/13 Q1015 NOSIG
12:30
V
32 °C 10 km+ - Var Var 3 kt METAR LFBC 101030Z AUTO VRB03KT CAVOK 32/12 Q1015 NOSIG
12:00
V
29 °C 10 km+ - 220° 220° 8 kt METAR LFBC 101000Z AUTO 22008KT CAVOK 29/15 Q1016 NOSIG
11:30
V
29 °C 10 km+ - Var Var 2 kt METAR LFBC 100930Z AUTO VRB02KT 9999 SCT009 29/12 Q1016 NOSIG
11:00
M
26 °C 10 km+ 1.000 ft Var Var 3 kt METAR LFBC 100900Z AUTO VRB03KT 9999 BKN010 OVC015 26/12 Q1016 NOSIG
10:30
M
24 °C 10 km+ 1.000 ft Var Var 2 kt METAR LFBC 100830Z AUTO VRB02KT 9999 BKN010 OVC015 24/12 Q1016 NOSIG
10:00
I
23 °C 10 km+ 800 ft 040° 040° 3 kt METAR LFBC 100800Z AUTO 04003KT 9999 BKN008 OVC014 23/11 Q1016 NOSIG
09:30
I
21 °C 10 km+ 800 ft 030° 030° 5 kt METAR LFBC 100730Z AUTO 03005KT 9999 BKN008 OVC012 21/11 Q1016 NOSIG
09:00
I
20 °C 10 km+ 800 ft 020° 020° 4 kt METAR LFBC 100700Z AUTO 02004KT 9999 OVC008 20/10 Q1016 NOSIG
08:30
I
20 °C 10 km+ 900 ft 020° 020° 2 kt METAR LFBC 100630Z AUTO 02002KT 9999 OVC009 20/10 Q1016 NOSIG
08:00
I
19 °C 10 km+ 900 ft 360° 360° 2 kt METAR LFBC 100600Z AUTO 36002KT 9999 OVC009 19/10 Q1016
07:30
I
19 °C 10 km+ 900 ft 010° 010° 4 kt METAR LFBC 100530Z AUTO 01004KT 9999 OVC009 19/10 Q1016
07:00
I
20 °C 10 km+ 900 ft 010° 010° 5 kt METAR LFBC 100500Z AUTO 01005KT 9999 OVC009 20/10 Q1016
06:30
M
20 °C 10 km+ 1.400 ft 020° 020° 3 kt METAR LFBC 100430Z AUTO 02003KT 9999 SCT010 OVC014 20/10 Q1016
06:00
M
20 °C 10 km+ 1.500 ft 010° 010° 4 kt METAR LFBC 100400Z AUTO 01004KT 9999 OVC015 20/10 Q1016
05:30
M
20 °C 10 km+ 1.200 ft 360° 360° 6 kt METAR LFBC 100330Z AUTO 36006KT 9999 OVC012 20/10 Q1016
05:00
M
20 °C 10 km+ 1.300 ft 360° 360° 4 kt METAR LFBC 100300Z AUTO 36004KT 9999 BKN013 OVC022 20/10 Q1016
04:30
M
21 °C 10 km+ 2.200 ft 010° 010° 4 kt METAR LFBC 100230Z AUTO 01004KT 9999 OVC022 21/10 Q1016
04:00
M
22 °C 10 km+ 2.500 ft 010° 010° 4 kt METAR LFBC 100200Z AUTO 01004KT 9999 SCT020 BKN025 OVC056 22/10 Q1016
03:30
V
22 °C 10 km+ - 010° 010° 5 kt METAR LFBC 100130Z AUTO 01005KT CAVOK 22/10 Q1016
03:00
V
22 °C 10 km+ - 010° 010° 5 kt METAR LFBC 100100Z AUTO 01005KT CAVOK 22/10 Q1016
02:30
V
23 °C 10 km+ - 010° 010° 5 kt METAR LFBC 100030Z AUTO 01005KT CAVOK 23/10 Q1016
02:00
V
24 °C 10 km+ - 010° 010° 5 kt METAR LFBC 100000Z AUTO 01005KT CAVOK 24/10 Q1016
01:30
V
25 °C 10 km+ - 010° 010° 6 kt METAR LFBC 092330Z AUTO 01006KT CAVOK 25/11 Q1016
01:00
V
26 °C 10 km+ - 020° 020° 6 kt METAR LFBC 092300Z AUTO 02006KT CAVOK 26/11 Q1016
00:30
V
26 °C 10 km+ - 020° 020° 6 kt METAR LFBC 092230Z AUTO 02006KT CAVOK 26/11 Q1016
00:00
V
27 °C 10 km+ - 020° 020° 6 kt METAR LFBC 092200Z AUTO 02006KT CAVOK 27/11 Q1017

9. August 2022

Uhrzeit Code Wetter Temp. Sichtweite Wolkendecke Wind METAR/SPECI
23:30
V
28 °C 10 km+ - 020° 020° 6 kt METAR LFBC 092130Z AUTO 02006KT CAVOK 28/11 Q1017
23:00
V
29 °C 10 km+ - 020° 020° 7 kt METAR LFBC 092100Z AUTO 02007KT CAVOK 29/11 Q1017
22:30
V
30 °C 10 km+ - 010° 010° 7 kt METAR LFBC 092030Z AUTO 01007KT CAVOK 30/11 Q1017
22:00
V
30 °C 10 km+ - 020° 020° 7 kt METAR LFBC 092000Z AUTO 02007KT CAVOK 30/10 Q1017
21:30
V
31 °C 10 km+ - 020° 020° 6 kt METAR LFBC 091930Z AUTO 02006KT CAVOK 31/09 Q1016
21:00
V
33 °C 10 km+ - 020° 020° 7 kt METAR LFBC 091900Z AUTO 02007KT CAVOK 33/08 Q1016
20:30
V
34 °C 10 km+ - 020° 020° 11 kt METAR LFBC 091830Z AUTO 02011KT CAVOK 34/08 Q1016
20:00
V
35 °C 10 km+ - 010° 010° 13 kt METAR LFBC 091800Z AUTO 01013KT CAVOK 35/07 Q1016
19:30
V
35 °C 10 km+ - 020° 020° 13 kt METAR LFBC 091730Z AUTO 02013KT 350V050 CAVOK 35/07 Q1016
19:00
V
36 °C 10 km+ - 030° 030° 9 kt METAR LFBC 091700Z AUTO 03009KT 320V090 CAVOK 36/06 Q1015
18:30
V
37 °C 10 km+ - 030° 030° 6 kt METAR LFBC 091630Z AUTO 03006KT 340V090 CAVOK 37/06 Q1016
18:00
V
36 °C 10 km+ - 020° 020° 6 kt METAR LFBC 091600Z AUTO 02006KT 330V080 CAVOK 36/06 Q1016
17:30
V
37 °C 10 km+ - 050° 050° 8 - 19 kt METAR LFBC 091530Z AUTO 05008G19KT 360V150 CAVOK 37/06 Q1016
17:00
V
36 °C 10 km+ - Var Var 5 kt METAR LFBC 091500Z AUTO VRB05KT CAVOK 36/10 Q1016 NOSIG
16:30
V
34 °C 10 km+ - 220° 220° 7 kt METAR LFBC 091430Z AUTO 22007KT 190V250 CAVOK 34/12 Q1017 BECMG 34010KT
16:00
V
33 °C 10 km+ - 220° 220° 10 kt METAR LFBC 091400Z AUTO 22010KT 180V240 CAVOK 33/15 Q1017 BECMG 34010KT
15:30
V
36 °C 10 km+ - 030° 030° 9 kt METAR LFBC 091330Z AUTO 03009KT 340V090 CAVOK 36/06 Q1017 NOSIG
15:00
V
36 °C 10 km+ - 040° 040° 8 kt METAR LFBC 091300Z AUTO 04008KT 350V090 CAVOK 36/06 Q1017 NOSIG
14:30
V
36 °C 10 km+ - 070° 070° 7 kt METAR LFBC 091230Z AUTO 07007KT 330V100 CAVOK 36/05 Q1018 NOSIG
14:00
V
35 °C 10 km+ - 100° 100° 9 kt METAR LFBC 091200Z AUTO 10009KT 050V140 CAVOK 35/05 Q1018 NOSIG
13:30
V
35 °C 10 km+ - 040° 040° 8 kt METAR LFBC 091130Z AUTO 04008KT 330V090 CAVOK 35/06 Q1018 NOSIG
13:00
V
34 °C 10 km+ - 030° 030° 8 kt METAR LFBC 091100Z AUTO 03008KT 340V080 CAVOK 34/08 Q1018 NOSIG
12:30
V
33 °C 10 km+ - 040° 040° 10 kt METAR LFBC 091030Z AUTO 04010KT 360V080 CAVOK 33/08 Q1018 NOSIG
12:00
V
32 °C 10 km+ - 010° 010° 8 kt METAR LFBC 091000Z AUTO 01008KT 330V050 CAVOK 32/09 Q1018 NOSIG
11:30
V
30 °C 10 km+ - 030° 030° 6 kt METAR LFBC 090930Z AUTO 03006KT 340V100 CAVOK 30/09 Q1018 NOSIG
11:00
V
30 °C 10 km+ - 050° 050° 6 kt METAR LFBC 090900Z AUTO 05006KT 360V090 CAVOK 30/10 Q1019 NOSIG
10:30
V
28 °C 10 km+ - 060° 060° 7 kt METAR LFBC 090830Z AUTO 06007KT 030V100 CAVOK 28/09 Q1019 NOSIG
10:00
V
26 °C 10 km+ - 060° 060° 7 kt METAR LFBC 090800Z AUTO 06007KT 030V090 CAVOK 26/09 Q1019 NOSIG
09:30
V
24 °C 10 km+ - 050° 050° 6 kt METAR LFBC 090730Z AUTO 05006KT 010V080 CAVOK 24/09 Q1019 NOSIG
09:00
V
22 °C 10 km+ - 040° 040° 5 kt METAR LFBC 090700Z AUTO 04005KT 010V070 CAVOK 22/09 Q1019 NOSIG
08:30
V
19 °C 10 km+ - Var Var 2 kt METAR LFBC 090630Z AUTO VRB02KT CAVOK 19/09 Q1019 NOSIG
08:00
L
17 °C 1,3 km - 010° 010° 2 kt METAR LFBC 090600Z AUTO 01002KT 9999 1300 R24/1800D NSC 17/09 Q1019
07:30
I
17 °C 3,5 km - 010° 010° 2 kt METAR LFBC 090530Z AUTO 01002KT 9999 3500 NSC 17/08 Q1018
07:00
V
18 °C 10 km+ - 040° 040° 3 kt METAR LFBC 090500Z AUTO 04003KT CAVOK 18/08 Q1018
06:30
V
19 °C 10 km+ - 360° 360° 4 kt METAR LFBC 090430Z AUTO 36004KT CAVOK 19/08 Q1018
06:00
V
20 °C 10 km+ - 010° 010° 6 kt METAR LFBC 090400Z AUTO 01006KT CAVOK 20/09 Q1017
05:30
V
20 °C 10 km+ - 010° 010° 6 kt METAR LFBC 090330Z AUTO 01006KT CAVOK 20/09 Q1017
05:00
V
20 °C 10 km+ - 010° 010° 6 kt METAR LFBC 090300Z AUTO 01006KT CAVOK 20/08 Q1018
04:30
V
21 °C 10 km+ - 010° 010° 6 kt METAR LFBC 090230Z AUTO 01006KT CAVOK 21/08 Q1018
04:00
V
21 °C 10 km+ - 010° 010° 6 kt METAR LFBC 090200Z AUTO 01006KT CAVOK 21/09 Q1018
03:30
V
22 °C 10 km+ - 010° 010° 7 kt METAR LFBC 090130Z AUTO 01007KT CAVOK 22/09 Q1017
03:00
V
22 °C 10 km+ - 010° 010° 7 kt METAR LFBC 090100Z AUTO 01007KT CAVOK 22/09 Q1018
02:30
V
23 °C 10 km+ - 010° 010° 8 kt METAR LFBC 090030Z AUTO 01008KT CAVOK 23/09 Q1018
02:00
V
23 °C 10 km+ - 010° 010° 7 kt METAR LFBC 090000Z AUTO 01007KT CAVOK 23/09 Q1018
01:30
V
24 °C 10 km+ - 010° 010° 7 kt METAR LFBC 082330Z AUTO 01007KT CAVOK 24/10 Q1018
01:00
V
24 °C 10 km+ - 010° 010° 6 kt METAR LFBC 082300Z AUTO 01006KT CAVOK 24/10 Q1018
00:30
V
25 °C 10 km+ - 010° 010° 6 kt METAR LFBC 082230Z AUTO 01006KT CAVOK 25/10 Q1017
00:00
V
26 °C 10 km+ - 010° 010° 6 kt METAR LFBC 082200Z AUTO 01006KT CAVOK 26/10 Q1017

8. August 2022

Uhrzeit Code Wetter Temp. Sichtweite Wolkendecke Wind METAR/SPECI
23:30
V
28 °C 10 km+ - 020° 020° 8 kt METAR LFBC 082130Z AUTO 02008KT CAVOK 28/10 Q1017
23:00
V
28 °C 10 km+ - 010° 010° 8 kt METAR LFBC 082100Z AUTO 01008KT CAVOK 28/10 Q1017
22:30
V
29 °C 10 km+ - 010° 010° 8 kt METAR LFBC 082030Z AUTO 01008KT CAVOK 29/10 Q1017
22:00
V
30 °C 10 km+ - 020° 020° 9 kt METAR LFBC 082000Z AUTO 02009KT CAVOK 30/09 Q1017
21:30
V
31 °C 10 km+ - 020° 020° 9 kt METAR LFBC 081930Z AUTO 02009KT CAVOK 31/09 Q1016
21:00
V
31 °C 10 km+ - 010° 010° 8 kt METAR LFBC 081900Z AUTO 01008KT CAVOK 31/08 Q1016
20:30
V
33 °C 10 km+ - 350° 350° 8 kt METAR LFBC 081830Z AUTO 35008KT CAVOK 33/08 Q1016
20:00
V
33 °C 10 km+ - 350° 350° 9 kt METAR LFBC 081800Z AUTO 35009KT CAVOK 33/08 Q1015
19:30
V
34 °C 10 km+ - 340° 340° 7 kt METAR LFBC 081730Z AUTO 34007KT 310V020 CAVOK 34/08 Q1015
19:00
V
35 °C 10 km+ - 020° 020° 8 kt METAR LFBC 081700Z AUTO 02008KT 340V060 CAVOK 35/05 Q1015
18:30
V
35 °C 10 km+ - 020° 020° 10 kt METAR LFBC 081630Z AUTO 02010KT 330V060 CAVOK 35/04 Q1015
18:00
V
36 °C 10 km+ - 010° 010° 9 kt METAR LFBC 081600Z AUTO 01009KT 330V070 CAVOK 36/07 Q1015
17:30
V
36 °C 10 km+ - 350° 350° 10 kt METAR LFBC 081530Z AUTO 35010KT 310V040 CAVOK 36/06 Q1015
17:00
V
36 °C 10 km+ - 040° 040° 8 kt METAR LFBC 081500Z AUTO 04008KT 350V160 CAVOK 36/04 Q1015 NOSIG
Ältere Daten

Wir und Dritte verfolgen dein Internetverhalten auf unserer Website mit Cookies. Wenn du fortfährst, gehen wir davon aus, dass du mit unserer Cookie-Richtlinie einverstanden bist. Mehr erfahren